createdAt,value
2019-04-07T00:03:59.795Z,4.10
2019-04-07T00:09:29.314Z,5.90
2019-04-07T00:14:58.709Z,4.47
2019-04-07T00:20:28.001Z,3.50
2019-04-07T00:25:57.769Z,8.70
2019-04-07T00:31:27.713Z,3.60
2019-04-07T00:36:57.250Z,6.43
2019-04-07T00:42:27.377Z,5.23
2019-04-07T00:47:56.911Z,4.43
2019-04-07T00:53:26.485Z,5.40
2019-04-07T00:58:56.268Z,6.43
2019-04-07T01:04:26.470Z,11.10
2019-04-07T01:09:55.911Z,4.10
2019-04-07T01:15:25.366Z,4.20
2019-04-07T01:20:54.668Z,4.10
2019-04-07T01:26:24.148Z,6.20
2019-04-07T01:31:53.457Z,7.30
2019-04-07T01:37:22.781Z,8.80
2019-04-07T01:43:09.219Z,7.30
2019-04-07T01:48:45.709Z,4.43
2019-04-07T01:54:22.981Z,5.17
2019-04-07T02:00:11.141Z,11.27
2019-04-07T02:05:56.295Z,8.00
2019-04-07T02:11:23.892Z,6.90
2019-04-07T02:16:55.369Z,8.93
2019-04-07T02:22:26.582Z,11.33
2019-04-07T02:27:57.554Z,7.60
2019-04-07T02:33:28.851Z,9.33
2019-04-07T02:39:00.087Z,9.33
2019-04-07T02:44:37.048Z,16.00
2019-04-07T02:50:27.295Z,9.33
2019-04-07T02:55:58.406Z,6.97
2019-04-07T03:01:31.232Z,7.00
2019-04-07T03:07:02.720Z,8.57
2019-04-07T03:12:34.178Z,7.90
2019-04-07T03:18:05.404Z,12.53
2019-04-07T03:23:54.763Z,5.43
2019-04-07T03:29:26.877Z,4.63
2019-04-07T03:35:19.817Z,5.60
2019-04-07T03:40:49.800Z,6.10
2019-04-07T03:46:21.605Z,5.63
2019-04-07T03:51:55.957Z,6.53
2019-04-07T03:57:36.463Z,5.30
2019-04-07T04:03:07.567Z,6.47
2019-04-07T04:08:41.775Z,7.07
2019-04-07T04:14:13.391Z,4.63
2019-04-07T04:19:42.853Z,5.13
2019-04-07T04:25:12.679Z,6.17
2019-04-07T04:30:42.835Z,5.90
2019-04-07T04:36:12.623Z,7.00
2019-04-07T04:41:42.911Z,6.57
2019-04-07T04:47:12.607Z,5.43
2019-04-07T04:52:42.758Z,8.80
2019-04-07T04:58:12.683Z,8.00
2019-04-07T05:03:42.835Z,8.10
2019-04-07T05:09:12.372Z,8.30
2019-04-07T05:14:42.115Z,8.80
2019-04-07T05:20:13.440Z,6.50
2019-04-07T05:25:42.873Z,8.07
2019-04-07T05:31:12.357Z,7.73
2019-04-07T05:36:42.196Z,7.23
2019-04-07T05:42:11.621Z,10.57
2019-04-07T05:47:47.795Z,7.97
2019-04-07T05:53:14.723Z,9.03
2019-04-07T05:58:43.900Z,7.90
2019-04-07T06:04:18.188Z,10.07
2019-04-07T06:09:50.075Z,8.43
2019-04-07T06:15:21.612Z,10.67
2019-04-07T06:20:48.529Z,9.20
2019-04-07T06:26:20.926Z,8.67
2019-04-07T06:31:50.237Z,6.50
2019-04-07T06:37:19.931Z,10.30
2019-04-07T06:42:49.957Z,8.90
2019-04-07T06:48:19.914Z,9.50
2019-04-07T06:53:51.486Z,14.20
2019-04-07T06:59:28.318Z,6.90
2019-04-07T07:05:13.710Z,6.73
2019-04-07T07:10:48.365Z,9.33
2019-04-07T07:16:36.181Z,8.03
2019-04-07T07:22:17.419Z,6.43
2019-04-07T07:27:47.816Z,8.17
2019-04-07T07:33:17.980Z,8.40
2019-04-07T07:38:57.518Z,9.00
2019-04-07T07:44:18.832Z,9.87
2019-04-07T07:49:48.296Z,9.00
2019-04-07T07:55:17.770Z,6.67
2019-04-07T08:00:47.586Z,7.13
2019-04-07T08:06:17.329Z,9.23
2019-04-07T08:11:47.804Z,7.33
2019-04-07T08:17:18.223Z,9.03
2019-04-07T08:22:48.235Z,7.10
2019-04-07T08:28:21.484Z,8.70
2019-04-07T08:33:51.845Z,8.53
2019-04-07T08:39:26.681Z,8.30
2019-04-07T08:44:57.236Z,7.60
2019-04-07T08:50:27.649Z,8.17
2019-04-07T08:55:57.004Z,7.40
2019-04-07T09:01:28.814Z,9.37
2019-04-07T09:07:00.700Z,11.40
2019-04-07T09:12:31.374Z,6.37
2019-04-07T09:18:14.157Z,7.07
2019-04-07T09:23:52.197Z,7.10
2019-04-07T09:29:28.291Z,6.63
2019-04-07T09:35:12.403Z,9.03
2019-04-07T09:40:48.412Z,9.90
2019-04-07T09:46:20.225Z,11.07
2019-04-07T09:52:00.971Z,14.90
2019-04-07T09:57:39.795Z,12.57
2019-04-07T10:03:19.665Z,13.47
2019-04-07T10:09:07.977Z,11.83
2019-04-07T10:14:54.106Z,13.67
2019-04-07T10:20:43.232Z,20.63
2019-04-07T10:26:31.395Z,11.67
2019-04-07T10:32:03.598Z,24.43
2019-04-07T10:37:36.237Z,22.10
2019-04-07T10:43:07.334Z,23.77
2019-04-07T10:48:48.614Z,20.23
2019-04-07T10:54:19.966Z,21.63
2019-04-07T11:00:07.567Z,23.03
2019-04-07T11:05:42.690Z,21.30
2019-04-07T11:11:30.393Z,21.27
2019-04-07T11:17:17.537Z,23.50
2019-04-07T11:22:58.531Z,29.90
2019-04-07T11:28:30.630Z,18.00
2019-04-07T11:34:01.679Z,15.20
2019-04-07T11:39:48.021Z,25.57
2019-04-07T11:45:31.461Z,25.63
2019-04-07T11:51:09.520Z,22.10
2019-04-07T11:56:47.202Z,17.17
2019-04-07T12:02:19.731Z,22.30
2019-04-07T12:08:08.260Z,30.07
2019-04-07T12:13:51.056Z,25.77
2019-04-07T12:19:23.837Z,27.03
2019-04-07T12:24:59.996Z,21.97
2019-04-07T12:30:37.932Z,22.77
2019-04-07T12:36:15.846Z,25.50
2019-04-07T12:42:03.892Z,25.77
2019-04-07T12:47:32.918Z,28.27
2019-04-07T12:53:13.510Z,21.13
2019-04-07T12:58:51.589Z,23.40
2019-04-07T13:04:39.681Z,24.40
2019-04-07T13:10:14.305Z,23.87
2019-04-07T13:15:52.122Z,21.57
2019-04-07T13:21:25.005Z,19.33
2019-04-07T13:26:56.303Z,16.80
2019-04-07T13:32:39.403Z,16.30
2019-04-07T13:38:07.689Z,14.97
2019-04-07T13:43:44.845Z,11.20
2019-04-07T13:49:16.148Z,11.20
2019-04-07T13:55:04.623Z,18.10
2019-04-07T14:00:38.790Z,12.53
2019-04-07T14:06:16.415Z,14.10
2019-04-07T14:12:02.065Z,12.07
2019-04-07T14:17:29.774Z,14.20
2019-04-07T14:23:03.215Z,14.97
2019-04-07T14:28:46.145Z,14.10
2019-04-07T14:34:35.267Z,14.33
2019-04-07T14:40:11.873Z,13.60
2019-04-07T14:45:48.452Z,16.80
2019-04-07T14:51:18.403Z,16.37
2019-04-07T14:56:49.663Z,16.13
2019-04-07T15:02:19.620Z,16.80
2019-04-07T15:07:50.690Z,16.80
2019-04-07T15:13:25.757Z,16.90
2019-04-07T15:18:53.431Z,15.87
2019-04-07T15:24:23.988Z,16.53
2019-04-07T15:29:53.429Z,13.53
2019-04-07T15:35:26.481Z,13.93
2019-04-07T15:40:58.565Z,18.10
2019-04-07T15:46:27.275Z,16.87
2019-04-07T15:52:08.185Z,15.90
2019-04-07T15:57:37.995Z,17.20
2019-04-07T16:03:08.500Z,17.33
2019-04-07T16:08:38.346Z,15.60
2019-04-07T16:14:12.509Z,16.27
2019-04-07T16:19:43.104Z,17.87
2019-04-07T16:25:11.737Z,16.60
2019-04-07T16:30:41.263Z,17.97
2019-04-07T16:36:10.893Z,15.37
2019-04-07T16:41:44.180Z,15.97
2019-04-07T16:47:19.272Z,16.63
2019-04-07T16:52:44.292Z,16.93
2019-04-07T16:58:15.903Z,18.77
2019-04-07T17:03:46.392Z,13.70
2019-04-07T17:09:23.077Z,18.23
2019-04-07T17:14:49.992Z,19.13
2019-04-07T17:20:20.040Z,18.40
2019-04-07T17:25:50.178Z,19.90
2019-04-07T17:31:20.824Z,18.73
2019-04-07T17:36:55.568Z,18.23
2019-04-07T17:42:25.879Z,17.00
2019-04-07T17:48:06.894Z,15.13
2019-04-07T17:53:55.986Z,16.83
2019-04-07T17:59:26.954Z,18.27
2019-04-07T18:04:59.106Z,24.67
2019-04-07T18:10:39.807Z,19.47
2019-04-07T18:16:12.333Z,17.77
2019-04-07T18:21:53.800Z,18.83
2019-04-07T18:27:26.522Z,18.87
2019-04-07T18:33:12.943Z,19.63
2019-04-07T18:38:58.222Z,19.40
2019-04-07T18:44:40.368Z,27.00
2019-04-07T18:50:20.110Z,21.87
2019-04-07T18:55:59.981Z,25.30
2019-04-07T19:01:31.962Z,24.00
2019-04-07T19:07:19.326Z,28.23
2019-04-07T19:13:14.206Z,34.80
2019-04-07T19:18:43.577Z,21.50
2019-04-07T19:24:21.356Z,23.73
2019-04-07T19:29:58.005Z,23.17
2019-04-07T19:35:29.728Z,20.80
2019-04-07T19:41:19.935Z,19.77
2019-04-07T19:46:51.199Z,22.70
2019-04-07T19:52:29.496Z,22.67
2019-04-07T19:58:04.148Z,34.50
2019-04-07T20:03:47.580Z,22.50
2019-04-07T20:09:55.520Z,24.03
2019-04-07T20:15:29.698Z,25.73
2019-04-07T20:21:00.818Z,20.67
2019-04-07T20:26:39.088Z,19.73
2019-04-07T20:32:11.058Z,21.70
2019-04-07T20:37:42.938Z,19.80
2019-04-07T20:43:17.699Z,24.20
2019-04-07T20:48:52.637Z,18.90
2019-04-07T20:54:38.949Z,20.73
2019-04-07T21:00:28.582Z,19.80
2019-04-07T21:06:16.756Z,22.43
2019-04-07T21:11:57.335Z,19.13
2019-04-07T21:17:31.632Z,16.47
2019-04-07T21:23:17.328Z,19.40
2019-04-07T21:28:48.342Z,18.00
2019-04-07T21:34:19.670Z,19.23
2019-04-07T21:40:05.385Z,22.90
2019-04-07T21:46:07.981Z,22.43
2019-04-07T21:51:39.860Z,17.40
2019-04-07T21:57:23.516Z,21.43
2019-04-07T22:02:54.978Z,20.80
2019-04-07T22:08:26.377Z,18.87
2019-04-07T22:13:55.866Z,18.90
2019-04-07T22:19:25.579Z,16.53
2019-04-07T22:24:57.987Z,19.40
2019-04-07T22:30:27.830Z,19.23
2019-04-07T22:35:57.575Z,19.93
2019-04-07T22:41:27.040Z,17.17
2019-04-07T22:46:58.647Z,18.23
2019-04-07T22:52:27.933Z,19.10
2019-04-07T22:57:57.857Z,17.90
2019-04-07T23:03:27.525Z,18.90
2019-04-07T23:08:57.364Z,17.43
2019-04-07T23:14:27.551Z,13.60
2019-04-07T23:19:57.073Z,13.17
2019-04-07T23:25:26.560Z,15.60
2019-04-07T23:30:56.897Z,14.90
2019-04-07T23:36:26.410Z,13.93
2019-04-07T23:41:55.736Z,16.87
2019-04-07T23:47:27.046Z,13.83
2019-04-07T23:53:01.166Z,18.07
2019-04-07T23:58:31.549Z,17.53
